createdAt,value
2019-05-17T00:00:27.369Z,99.99
2019-05-17T00:01:27.032Z,99.99
2019-05-17T00:02:26.612Z,99.99
2019-05-17T00:03:27.026Z,99.99
2019-05-17T00:04:26.986Z,99.99
2019-05-17T00:05:26.556Z,99.99
2019-05-17T00:06:27.561Z,99.99
2019-05-17T00:07:27.278Z,99.99
2019-05-17T00:08:33.923Z,99.99
2019-05-17T00:09:26.780Z,99.99
2019-05-17T00:10:26.529Z,99.99
2019-05-17T00:11:27.300Z,99.99
2019-05-17T00:12:27.104Z,99.99
2019-05-17T00:13:26.843Z,99.99
2019-05-17T00:14:27.096Z,99.99
2019-05-17T00:15:27.355Z,99.99
2019-05-17T00:16:26.820Z,99.99
2019-05-17T00:17:26.735Z,99.99
2019-05-17T00:18:26.463Z,99.99
2019-05-17T00:19:26.369Z,99.99
2019-05-17T00:20:26.626Z,99.99
2019-05-17T00:21:27.474Z,99.99
2019-05-17T00:22:26.988Z,99.99
2019-05-17T00:23:26.865Z,99.99
2019-05-17T00:24:26.562Z,99.99
2019-05-17T00:25:27.396Z,99.99
2019-05-17T00:26:26.979Z,99.99
2019-05-17T00:27:26.505Z,99.99
2019-05-17T00:28:26.923Z,99.99
2019-05-17T00:29:26.422Z,99.99
2019-05-17T00:30:26.553Z,99.99
2019-05-17T00:31:26.337Z,99.99
2019-05-17T00:32:27.412Z,99.99
2019-05-17T00:33:27.252Z,99.99
2019-05-17T00:34:27.074Z,99.99
2019-05-17T00:35:26.799Z,99.99
2019-05-17T00:36:26.998Z,99.99
2019-05-17T00:37:26.409Z,99.99
2019-05-17T00:38:27.429Z,99.99
2019-05-17T00:39:27.185Z,99.99
2019-05-17T00:40:27.004Z,99.99
2019-05-17T00:41:26.960Z,99.99
2019-05-17T00:42:26.435Z,99.99
2019-05-17T00:43:26.275Z,99.99
2019-05-17T00:44:27.170Z,99.99
2019-05-17T00:45:26.704Z,99.99
2019-05-17T00:46:26.699Z,99.99
2019-05-17T00:47:26.595Z,99.99
2019-05-17T00:48:26.446Z,99.99
2019-05-17T00:49:26.460Z,99.99
2019-05-17T00:50:27.336Z,99.99
2019-05-17T00:51:27.251Z,99.99
2019-05-17T00:52:27.153Z,99.99
2019-05-17T00:53:26.935Z,99.99
2019-05-17T00:54:26.906Z,99.99
2019-05-17T00:55:26.844Z,99.99
2019-05-17T00:56:26.653Z,99.99
2019-05-17T00:57:27.206Z,99.99
2019-05-17T00:58:26.272Z,99.99
2019-05-17T00:59:26.298Z,99.99
2019-05-17T01:00:27.630Z,99.99
2019-05-17T01:01:26.908Z,99.99
2019-05-17T01:02:26.847Z,99.99
2019-05-17T01:03:26.786Z,99.99
2019-05-17T01:04:24.870Z,99.99
2019-05-17T01:05:24.848Z,99.99
2019-05-17T01:06:24.820Z,99.99
2019-05-17T01:07:26.888Z,99.99
2019-05-17T01:08:26.500Z,99.99
2019-05-17T01:09:27.162Z,99.99
2019-05-17T01:10:27.093Z,99.99
2019-05-17T01:11:26.943Z,99.99
2019-05-17T01:12:26.968Z,99.99
2019-05-17T01:13:26.566Z,99.99
2019-05-17T01:14:26.471Z,99.99
2019-05-17T01:15:24.597Z,99.99
2019-05-17T01:16:24.598Z,99.99
2019-05-17T01:17:26.704Z,99.99
2019-05-17T01:18:26.536Z,99.99
2019-05-17T01:19:26.867Z,99.99
2019-05-17T01:20:24.483Z,99.99
2019-05-17T01:21:26.307Z,99.99
2019-05-17T01:22:26.248Z,99.99
2019-05-17T01:23:24.405Z,99.99
2019-05-17T01:24:24.397Z,99.99
2019-05-17T01:25:24.354Z,99.99
2019-05-17T01:26:26.574Z,99.99
2019-05-17T01:27:26.265Z,99.99
2019-05-17T01:28:24.280Z,99.99
2019-05-17T01:29:24.252Z,99.99
2019-05-17T01:30:26.498Z,99.99
2019-05-17T01:31:26.493Z,99.99
2019-05-17T01:32:26.526Z,99.99
2019-05-17T01:33:26.110Z,99.99
2019-05-17T01:34:24.140Z,99.99
2019-05-17T01:35:26.465Z,99.99
2019-05-17T01:36:26.224Z,99.99
2019-05-17T01:37:24.059Z,99.99
2019-05-17T01:38:24.034Z,99.99
2019-05-17T01:39:24.008Z,99.99
2019-05-17T01:40:26.314Z,99.99
2019-05-17T01:41:23.952Z,99.99
2019-05-17T01:42:23.934Z,99.99
2019-05-17T01:43:23.912Z,99.99
2019-05-17T01:44:23.879Z,99.99
2019-05-17T01:45:23.852Z,99.99
2019-05-17T01:46:23.836Z,99.99
2019-05-17T01:47:23.814Z,99.99
2019-05-17T01:48:23.783Z,99.99
2019-05-17T01:49:23.760Z,99.99
2019-05-17T01:50:30.927Z,99.99
2019-05-17T01:52:23.820Z,99.99
2019-05-17T01:53:16.751Z,99.99
2019-05-17T01:55:09.465Z,99.99
2019-05-17T01:56:17.033Z,99.99
2019-05-17T01:58:09.790Z,99.99
2019-05-17T01:59:02.290Z,99.99
2019-05-17T02:00:02.267Z,99.99
2019-05-17T02:01:02.232Z,99.99
2019-05-17T02:02:02.219Z,99.99
2019-05-17T02:03:02.193Z,99.99
2019-05-17T02:04:02.166Z,99.99
2019-05-17T02:05:02.139Z,99.99
2019-05-17T02:06:02.112Z,99.99
2019-05-17T02:07:02.088Z,99.99
2019-05-17T02:08:02.068Z,99.99
2019-05-17T02:09:02.047Z,99.99
2019-05-17T02:10:02.061Z,99.99
2019-05-17T02:11:01.991Z,99.99
2019-05-17T02:12:01.966Z,99.99
2019-05-17T02:13:01.941Z,99.99
2019-05-17T02:14:01.916Z,99.99
2019-05-17T02:15:01.903Z,99.99
2019-05-17T02:16:01.861Z,99.99
2019-05-17T02:17:01.862Z,99.99
2019-05-17T02:18:01.810Z,99.99
2019-05-17T02:19:01.796Z,99.99
2019-05-17T02:20:01.803Z,99.99
2019-05-17T02:21:01.741Z,99.99
2019-05-17T02:22:01.721Z,99.99
2019-05-17T02:23:01.695Z,99.99
2019-05-17T02:24:01.667Z,99.99
2019-05-17T02:25:01.723Z,99.99
2019-05-17T02:26:01.610Z,99.99
2019-05-17T02:27:01.592Z,99.99
2019-05-17T02:28:01.969Z,99.99
2019-05-17T02:29:01.543Z,99.99
2019-05-17T02:30:02.510Z,99.99
2019-05-17T02:31:03.414Z,99.99
2019-05-17T02:32:03.903Z,99.99
2019-05-17T02:33:03.815Z,99.99
2019-05-17T02:34:03.061Z,99.99
2019-05-17T02:35:03.432Z,99.99
2019-05-17T02:36:02.784Z,99.99
2019-05-17T02:37:03.040Z,99.99
2019-05-17T02:38:02.824Z,99.99
2019-05-17T02:39:03.671Z,99.99
2019-05-17T02:40:06.120Z,99.99
2019-05-17T02:41:03.273Z,99.99
2019-05-17T02:42:02.862Z,99.99
2019-05-17T02:43:03.228Z,99.99
2019-05-17T02:44:02.312Z,99.99
2019-05-17T02:45:03.215Z,99.99
2019-05-17T02:46:03.631Z,99.99
2019-05-17T02:47:03.143Z,99.99
2019-05-17T02:48:03.933Z,99.99
2019-05-17T02:49:03.007Z,99.99
2019-05-17T02:50:01.025Z,99.99
2019-05-17T02:51:03.580Z,99.99
2019-05-17T02:52:03.205Z,99.99
2019-05-17T02:53:03.900Z,99.99
2019-05-17T02:54:04.252Z,99.99
2019-05-17T02:55:04.016Z,99.99
2019-05-17T02:56:03.172Z,99.99
2019-05-17T02:57:03.258Z,99.99
2019-05-17T02:58:03.200Z,99.99
2019-05-17T02:59:03.294Z,99.99
2019-05-17T03:00:04.317Z,99.99
2019-05-17T03:01:03.737Z,99.99
2019-05-17T03:02:03.559Z,99.99
2019-05-17T03:03:03.333Z,99.99
2019-05-17T03:04:03.585Z,99.99
2019-05-17T03:05:03.905Z,99.99
2019-05-17T03:06:03.194Z,99.99
2019-05-17T03:07:03.466Z,99.99
2019-05-17T03:08:03.880Z,99.99
2019-05-17T03:09:03.365Z,99.99
2019-05-17T03:10:13.796Z,99.99
2019-05-17T03:11:03.245Z,99.99
2019-05-17T03:12:03.290Z,99.99
2019-05-17T03:13:03.640Z,99.99
2019-05-17T03:14:03.684Z,99.99
2019-05-17T03:15:03.802Z,99.99
2019-05-17T03:16:03.062Z,99.99
2019-05-17T03:17:03.155Z,99.99
2019-05-17T03:18:03.598Z,99.99
2019-05-17T03:19:03.810Z,99.99
2019-05-17T03:20:03.594Z,99.99
2019-05-17T03:21:03.556Z,99.99
2019-05-17T03:22:04.417Z,99.99
2019-05-17T03:23:03.315Z,99.99
2019-05-17T03:24:03.247Z,99.99
2019-05-17T03:25:03.465Z,99.99
2019-05-17T03:26:03.200Z,99.99
2019-05-17T03:27:02.820Z,99.99
2019-05-17T03:28:03.008Z,99.99
2019-05-17T03:29:03.131Z,99.99
2019-05-17T03:30:04.283Z,99.99
2019-05-17T03:31:06.820Z,99.99
2019-05-17T03:32:07.333Z,99.99
2019-05-17T03:33:06.199Z,99.99
2019-05-17T03:34:05.595Z,99.99
2019-05-17T03:35:06.017Z,99.99
2019-05-17T03:36:05.357Z,99.99
2019-05-17T03:37:05.415Z,99.99
2019-05-17T03:37:59.824Z,99.99
2019-05-17T03:39:02.888Z,99.99
2019-05-17T03:40:04.601Z,99.99
2019-05-17T03:41:13.384Z,99.99
2019-05-17T03:42:02.417Z,99.99
2019-05-17T03:43:02.544Z,99.99
2019-05-17T03:44:02.894Z,99.99
2019-05-17T03:45:02.634Z,99.99
2019-05-17T03:46:02.431Z,99.99
2019-05-17T03:47:02.146Z,99.99
2019-05-17T03:47:59.577Z,99.99
2019-05-17T03:48:59.550Z,99.99
2019-05-17T03:50:02.793Z,99.99
2019-05-17T03:51:02.357Z,99.99
2019-05-17T03:52:02.486Z,99.99
2019-05-17T03:53:02.183Z,99.99
2019-05-17T03:54:02.063Z,99.99
2019-05-17T03:54:59.409Z,99.99
2019-05-17T03:56:02.651Z,99.99
2019-05-17T03:57:02.653Z,99.99
2019-05-17T03:58:02.637Z,99.99
2019-05-17T03:58:59.304Z,99.99
2019-05-17T03:59:59.278Z,99.99
2019-05-17T04:00:59.251Z,99.99
2019-05-17T04:01:59.240Z,99.99
2019-05-17T04:02:59.205Z,99.99
2019-05-17T04:04:02.549Z,99.99
2019-05-17T04:04:59.149Z,99.99
2019-05-17T04:05:59.140Z,99.99
2019-05-17T04:06:59.105Z,99.99
2019-05-17T04:07:59.077Z,99.99
2019-05-17T04:08:59.047Z,99.99
2019-05-17T04:09:59.057Z,99.99
2019-05-17T04:11:15.100Z,99.99
2019-05-17T04:11:58.978Z,99.99
2019-05-17T04:12:58.951Z,99.99
2019-05-17T04:13:58.943Z,99.99
2019-05-17T04:14:58.908Z,99.99
2019-05-17T04:15:58.892Z,99.99
2019-05-17T04:16:58.853Z,99.99
2019-05-17T04:17:58.825Z,99.99
2019-05-17T04:18:58.797Z,99.99
2019-05-17T04:19:58.786Z,99.99
2019-05-17T04:20:58.757Z,99.99
2019-05-17T04:21:58.727Z,99.99
2019-05-17T04:22:58.704Z,99.99
2019-05-17T04:23:58.678Z,99.99
2019-05-17T04:24:58.657Z,99.99
2019-05-17T04:25:58.635Z,99.99
2019-05-17T04:26:58.607Z,99.99
2019-05-17T04:27:58.579Z,99.99
2019-05-17T04:28:58.551Z,99.99
2019-05-17T04:29:58.536Z,99.99
2019-05-17T04:30:58.507Z,99.99
2019-05-17T04:31:58.482Z,99.99
2019-05-17T04:32:58.455Z,99.99
2019-05-17T04:33:58.434Z,99.99
2019-05-17T04:34:58.414Z,99.99
2019-05-17T04:35:58.383Z,99.99
2019-05-17T04:36:58.362Z,99.99
2019-05-17T04:37:58.335Z,99.99
2019-05-17T04:38:58.310Z,99.99
2019-05-17T04:39:58.285Z,99.99
2019-05-17T04:40:58.256Z,99.99
2019-05-17T04:41:58.231Z,99.99
2019-05-17T04:42:58.220Z,99.99
2019-05-17T04:43:58.184Z,99.99
2019-05-17T04:44:58.163Z,99.99
2019-05-17T04:45:58.140Z,99.99
2019-05-17T04:46:58.110Z,99.99
2019-05-17T04:47:58.088Z,99.99
2019-05-17T04:48:58.064Z,99.99
2019-05-17T04:49:58.038Z,99.99
2019-05-17T04:50:58.022Z,99.99
2019-05-17T04:51:57.990Z,99.99
2019-05-17T04:52:57.973Z,99.99
2019-05-17T04:53:57.940Z,99.99
2019-05-17T04:54:57.908Z,99.99
2019-05-17T04:55:57.887Z,99.99
2019-05-17T04:56:57.866Z,99.99
2019-05-17T04:57:57.849Z,99.99
2019-05-17T04:58:57.836Z,99.99
2019-05-17T04:59:57.783Z,99.99
2019-05-17T05:00:57.770Z,99.99
2019-05-17T05:01:57.741Z,99.99
2019-05-17T05:02:57.738Z,99.99
2019-05-17T05:03:57.692Z,99.99
2019-05-17T05:04:57.681Z,99.99
2019-05-17T05:05:57.642Z,99.99
2019-05-17T05:06:57.616Z,99.99
2019-05-17T05:07:57.588Z,99.99
2019-05-17T05:08:57.566Z,99.99
2019-05-17T05:09:57.551Z,99.99
2019-05-17T05:10:57.524Z,99.99
2019-05-17T05:12:02.715Z,99.99
2019-05-17T05:12:57.473Z,99.99
2019-05-17T05:13:57.439Z,99.99
2019-05-17T05:14:57.417Z,99.99
2019-05-17T05:15:57.392Z,99.99
2019-05-17T05:16:57.371Z,99.99
2019-05-17T05:17:57.341Z,99.99
2019-05-17T05:18:57.320Z,99.99
2019-05-17T05:19:57.305Z,99.99
2019-05-17T05:20:57.276Z,99.99
2019-05-17T05:21:57.242Z,99.99
2019-05-17T05:22:57.222Z,99.99
2019-05-17T05:23:57.202Z,99.99
2019-05-17T05:24:57.182Z,99.99
2019-05-17T05:25:57.140Z,99.99
2019-05-17T05:26:57.120Z,99.99
2019-05-17T05:27:57.095Z,99.99
2019-05-17T05:28:57.068Z,99.99
2019-05-17T05:29:57.050Z,99.99
2019-05-17T05:30:57.023Z,99.99
2019-05-17T05:31:56.988Z,99.99
2019-05-17T05:32:56.974Z,99.99
2019-05-17T05:33:56.951Z,99.99
2019-05-17T05:34:56.924Z,99.99
2019-05-17T05:35:56.897Z,99.99
2019-05-17T05:36:56.876Z,99.99
2019-05-17T05:37:56.850Z,99.99
2019-05-17T05:38:56.824Z,99.99
2019-05-17T05:39:56.806Z,99.99
2019-05-17T05:40:56.774Z,99.99
2019-05-17T05:42:06.949Z,99.99
2019-05-17T05:42:57.310Z,99.99
2019-05-17T05:43:56.700Z,99.99
2019-05-17T05:44:56.672Z,99.99
2019-05-17T05:45:56.651Z,99.99
2019-05-17T05:46:56.631Z,99.99
2019-05-17T05:47:56.607Z,99.99
2019-05-17T05:48:56.579Z,99.99
2019-05-17T05:49:56.555Z,99.99
2019-05-17T05:50:56.527Z,99.99
2019-05-17T05:51:56.503Z,99.99
2019-05-17T05:52:56.487Z,99.99
2019-05-17T05:53:56.455Z,99.99
2019-05-17T05:54:56.433Z,99.99
2019-05-17T05:55:56.402Z,99.99
2019-05-17T05:56:56.395Z,99.99
2019-05-17T05:57:56.357Z,99.99
2019-05-17T05:58:56.331Z,99.99
2019-05-17T05:59:56.310Z,99.99
2019-05-17T06:00:56.282Z,99.99
2019-05-17T06:01:56.258Z,99.99
2019-05-17T06:02:56.234Z,99.99
2019-05-17T06:03:56.211Z,99.99
2019-05-17T06:04:56.179Z,99.99
2019-05-17T06:05:56.159Z,99.99
2019-05-17T06:06:56.141Z,99.99
2019-05-17T06:07:56.122Z,99.99
2019-05-17T06:08:56.083Z,99.99
2019-05-17T06:09:56.062Z,99.99
2019-05-17T06:10:56.036Z,99.99
2019-05-17T06:11:56.012Z,99.99
2019-05-17T06:12:55.989Z,99.99
2019-05-17T06:13:55.964Z,99.99
2019-05-17T06:14:55.936Z,99.99
2019-05-17T06:15:55.913Z,99.99
2019-05-17T06:16:55.890Z,99.99
2019-05-17T06:17:55.866Z,99.99
2019-05-17T06:18:55.842Z,99.99
2019-05-17T06:19:55.816Z,99.99
2019-05-17T06:20:55.790Z,99.99
2019-05-17T06:21:55.768Z,99.99
2019-05-17T06:22:55.746Z,99.99
2019-05-17T06:23:55.721Z,99.99
2019-05-17T06:24:55.696Z,99.99
2019-05-17T06:25:55.691Z,99.99
2019-05-17T06:26:55.646Z,99.99
2019-05-17T06:27:55.622Z,99.99
2019-05-17T06:28:55.597Z,99.99
2019-05-17T06:29:55.574Z,99.99
2019-05-17T06:30:55.550Z,99.99
2019-05-17T06:31:55.525Z,99.99
2019-05-17T06:32:55.500Z,99.99
2019-05-17T06:33:55.479Z,99.99
2019-05-17T06:34:55.453Z,99.99
2019-05-17T06:35:55.427Z,99.99
2019-05-17T06:36:55.395Z,99.99
2019-05-17T06:37:55.375Z,99.99
2019-05-17T06:38:55.349Z,99.99
2019-05-17T06:39:55.327Z,99.99
2019-05-17T06:40:55.308Z,99.99
2019-05-17T06:41:55.281Z,99.99
2019-05-17T06:42:55.253Z,99.99
2019-05-17T06:43:55.231Z,99.99
2019-05-17T06:44:55.210Z,99.99
2019-05-17T06:45:55.183Z,99.99
2019-05-17T06:46:55.155Z,99.99
2019-05-17T06:47:55.132Z,99.99
2019-05-17T06:48:55.118Z,99.99
2019-05-17T06:49:55.099Z,99.99
2019-05-17T06:50:55.055Z,99.99
2019-05-17T06:51:55.037Z,99.99
2019-05-17T06:52:55.011Z,99.99
2019-05-17T06:53:54.988Z,99.99
2019-05-17T06:54:54.961Z,99.99
2019-05-17T06:55:54.938Z,99.99
2019-05-17T06:56:54.912Z,99.99
2019-05-17T06:57:54.895Z,99.99
2019-05-17T06:58:54.867Z,99.99
2019-05-17T06:59:54.846Z,99.99
2019-05-17T07:00:54.817Z,99.99
2019-05-17T07:01:54.811Z,99.99
2019-05-17T07:02:54.773Z,99.99
2019-05-17T07:03:54.757Z,99.99
2019-05-17T07:04:54.721Z,99.99
2019-05-17T07:05:54.701Z,99.99
2019-05-17T07:06:54.673Z,99.99
2019-05-17T07:07:54.668Z,99.99
2019-05-17T07:08:54.636Z,99.99
2019-05-17T07:09:54.602Z,99.99
2019-05-17T07:10:54.581Z,99.99
2019-05-17T07:11:54.559Z,99.99
2019-05-17T07:12:58.722Z,99.99
2019-05-17T07:13:54.506Z,99.99
2019-05-17T07:14:54.478Z,99.99
2019-05-17T07:15:54.462Z,99.99
2019-05-17T07:16:54.441Z,99.99
2019-05-17T07:17:54.410Z,99.99
2019-05-17T07:18:54.382Z,99.99
2019-05-17T07:19:54.365Z,99.99
2019-05-17T07:20:54.344Z,99.99
2019-05-17T07:21:54.328Z,99.99
2019-05-17T07:22:54.295Z,99.99
2019-05-17T07:23:54.272Z,99.99
2019-05-17T07:24:54.248Z,99.99
2019-05-17T07:25:54.227Z,99.99
2019-05-17T07:26:54.198Z,99.99
2019-05-17T07:27:54.178Z,99.99
2019-05-17T07:28:54.155Z,99.99
2019-05-17T07:29:54.128Z,99.99
2019-05-17T07:30:54.106Z,99.99
2019-05-17T07:31:54.084Z,99.99
2019-05-17T07:32:54.062Z,99.99
2019-05-17T07:33:54.896Z,99.99
2019-05-17T07:34:54.013Z,99.99
2019-05-17T07:35:53.988Z,99.99
2019-05-17T07:36:53.964Z,99.99
2019-05-17T07:37:53.937Z,99.99
2019-05-17T07:38:53.918Z,99.99
2019-05-17T07:40:01.190Z,99.99
2019-05-17T07:40:53.871Z,99.99
2019-05-17T07:41:53.848Z,99.99
2019-05-17T07:43:06.907Z,99.99
2019-05-17T07:43:53.804Z,99.99
2019-05-17T07:44:53.794Z,99.99
2019-05-17T07:45:53.754Z,99.99
2019-05-17T07:46:53.732Z,99.99
2019-05-17T07:47:53.710Z,99.99
2019-05-17T07:48:53.677Z,99.99
2019-05-17T07:49:54.629Z,99.99
2019-05-17T07:50:53.635Z,99.99
2019-05-17T07:51:53.616Z,99.99
2019-05-17T07:52:53.591Z,99.99
2019-05-17T07:53:53.568Z,99.99
2019-05-17T07:54:53.539Z,99.99
2019-05-17T07:55:53.522Z,99.99
2019-05-17T07:56:53.503Z,99.99
2019-05-17T07:57:53.473Z,99.99
2019-05-17T07:58:53.449Z,99.98
2019-05-17T07:59:53.433Z,99.22
2019-05-17T08:00:53.407Z,98.65
2019-05-17T08:01:53.389Z,98.65
2019-05-17T08:02:53.363Z,98.18
2019-05-17T08:03:53.343Z,98.08
2019-05-17T08:04:53.319Z,98.18
2019-05-17T08:05:53.296Z,97.89
2019-05-17T08:06:53.281Z,98.18
2019-05-17T08:07:53.265Z,98.22
2019-05-17T08:08:53.230Z,97.65
2019-05-17T08:09:53.219Z,96.70
2019-05-17T08:10:53.186Z,95.75
2019-05-17T08:11:53.172Z,94.56
2019-05-17T08:12:53.143Z,95.70
2019-05-17T08:13:53.127Z,96.94
2019-05-17T08:14:53.115Z,97.60
2019-05-17T08:15:53.076Z,97.79
2019-05-17T08:16:53.055Z,97.51
2019-05-17T08:17:53.033Z,97.51
2019-05-17T08:18:53.009Z,97.13
2019-05-17T08:19:52.988Z,97.03
2019-05-17T08:20:52.969Z,96.27
2019-05-17T08:21:52.945Z,96.94
2019-05-17T08:22:52.931Z,96.84
2019-05-17T08:23:52.905Z,97.65
2019-05-17T08:24:52.881Z,96.51
2019-05-17T08:25:56.185Z,96.60
2019-05-17T08:26:52.840Z,96.51
2019-05-17T08:27:52.810Z,95.27
2019-05-17T08:28:52.797Z,94.46
2019-05-17T08:29:52.774Z,94.13
2019-05-17T08:30:52.756Z,94.56
2019-05-17T08:31:52.737Z,93.98
2019-05-17T08:32:52.710Z,93.70
2019-05-17T08:33:52.690Z,94.08
2019-05-17T08:34:52.668Z,94.08
2019-05-17T08:35:52.649Z,93.03
2019-05-17T08:36:52.628Z,91.46
2019-05-17T08:37:52.600Z,90.22
2019-05-17T08:38:52.586Z,87.93
2019-05-17T08:39:52.566Z,86.44
2019-05-17T08:40:52.547Z,86.92
2019-05-17T08:41:52.536Z,87.40
2019-05-17T08:42:52.504Z,87.97
2019-05-17T08:43:52.485Z,87.59
2019-05-17T08:44:52.464Z,87.97
2019-05-17T08:45:52.444Z,87.68
2019-05-17T08:46:52.425Z,87.16
2019-05-17T08:47:52.405Z,89.26
2019-05-17T08:48:52.400Z,90.59
2019-05-17T08:49:52.372Z,90.79
2019-05-17T08:50:52.348Z,91.46
2019-05-17T08:51:52.334Z,91.46
2019-05-17T08:52:52.312Z,91.07
2019-05-17T08:53:52.292Z,90.50
2019-05-17T08:54:52.284Z,90.88
2019-05-17T08:55:52.257Z,91.60
2019-05-17T08:56:52.229Z,91.31
2019-05-17T08:57:52.207Z,91.55
2019-05-17T08:58:52.195Z,90.55
2019-05-17T08:59:52.176Z,90.45
2019-05-17T09:00:52.152Z,91.88
2019-05-17T09:01:52.134Z,91.22
2019-05-17T09:02:52.114Z,90.93
2019-05-17T09:03:52.093Z,90.74
2019-05-17T09:04:52.076Z,90.45
2019-05-17T09:05:52.867Z,90.93
2019-05-17T09:06:52.034Z,91.64
2019-05-17T09:07:52.014Z,92.69
2019-05-17T09:08:51.996Z,92.32
2019-05-17T09:09:51.975Z,91.27
2019-05-17T09:10:51.956Z,89.74
2019-05-17T09:11:51.936Z,90.22
2019-05-17T09:12:51.913Z,89.74
2019-05-17T09:13:57.917Z,89.17
2019-05-17T09:14:51.878Z,89.21
2019-05-17T09:15:51.861Z,89.78
2019-05-17T09:16:51.841Z,89.12
2019-05-17T09:17:51.816Z,88.73
2019-05-17T09:18:51.792Z,89.12
2019-05-17T09:19:54.336Z,87.87
2019-05-17T09:20:51.758Z,87.02
2019-05-17T09:21:51.737Z,87.21
2019-05-17T09:22:51.715Z,88.64
2019-05-17T09:23:51.705Z,88.92
2019-05-17T09:24:51.685Z,88.45
2019-05-17T09:25:51.656Z,88.26
2019-05-17T09:26:51.651Z,87.40
2019-05-17T09:27:51.623Z,87.35
2019-05-17T09:28:51.603Z,87.54
2019-05-17T09:29:51.583Z,88.98
2019-05-17T09:30:51.563Z,89.26
2019-05-17T09:31:51.546Z,90.59
2019-05-17T09:32:51.526Z,91.64
2019-05-17T09:33:51.508Z,91.36
2019-05-17T09:34:51.485Z,89.93
2019-05-17T09:35:51.469Z,89.07
2019-05-17T09:36:51.449Z,87.93
2019-05-17T09:37:51.426Z,87.50
2019-05-17T09:38:51.409Z,89.22
2019-05-17T09:39:51.388Z,90.50
2019-05-17T09:40:51.367Z,90.69
2019-05-17T09:41:51.352Z,90.26
2019-05-17T09:42:51.327Z,90.55
2019-05-17T09:43:51.314Z,87.92
2019-05-17T09:44:51.291Z,85.82
2019-05-17T09:45:51.273Z,83.72
2019-05-17T09:46:51.253Z,84.48
2019-05-17T09:47:51.232Z,83.18
2019-05-17T09:48:51.212Z,82.71
2019-05-17T09:49:51.189Z,82.86
2019-05-17T09:50:51.171Z,84.67
2019-05-17T09:51:51.157Z,83.43
2019-05-17T09:52:51.141Z,83.34
2019-05-17T09:53:51.117Z,84.81
2019-05-17T09:55:00.533Z,84.76
2019-05-17T09:56:51.189Z,81.65
2019-05-17T09:57:51.147Z,81.40
2019-05-17T09:59:37.877Z,79.58
2019-05-17T10:00:46.049Z,79.39
2019-05-17T10:02:40.143Z,76.81
2019-05-17T10:03:30.965Z,78.53
2019-05-17T10:04:30.706Z,77.15
2019-05-17T10:05:31.232Z,77.59
2019-05-17T10:06:30.669Z,78.07
2019-05-17T10:07:30.654Z,79.17
2019-05-17T10:08:30.634Z,82.08
2019-05-17T10:09:30.617Z,81.95
2019-05-17T10:10:30.601Z,82.23
2019-05-17T10:11:30.823Z,82.90
2019-05-17T10:12:30.564Z,82.61
2019-05-17T10:13:30.548Z,82.04
2019-05-17T10:14:31.418Z,80.70
2019-05-17T10:15:30.521Z,80.99
2019-05-17T10:16:30.830Z,81.66
2019-05-17T10:17:30.473Z,81.18
2019-05-17T10:18:30.459Z,81.81
2019-05-17T10:19:30.437Z,82.67
2019-05-17T10:20:30.427Z,83.05
2019-05-17T10:21:30.510Z,82.90
2019-05-17T10:22:30.591Z,82.90
2019-05-17T10:23:30.373Z,83.28
2019-05-17T10:24:37.959Z,80.36
2019-05-17T10:25:30.335Z,80.46
2019-05-17T10:26:30.524Z,79.25
2019-05-17T10:27:30.406Z,77.34
2019-05-17T10:28:30.292Z,76.67
2019-05-17T10:29:30.265Z,78.01
2019-05-17T10:30:30.247Z,77.28
2019-05-17T10:31:30.478Z,76.33
2019-05-17T10:32:30.869Z,77.09
2019-05-17T10:33:30.198Z,74.90
2019-05-17T10:34:30.183Z,76.96
2019-05-17T10:35:30.163Z,74.66
2019-05-17T10:36:30.146Z,74.38
2019-05-17T10:37:30.398Z,74.57
2019-05-17T10:38:30.163Z,76.77
2019-05-17T10:39:30.095Z,77.44
2019-05-17T10:40:30.081Z,78.30
2019-05-17T10:41:30.237Z,79.93
2019-05-17T10:42:30.565Z,80.59
2019-05-17T10:43:30.044Z,79.25
2019-05-17T10:44:43.650Z,78.30
2019-05-17T10:45:30.494Z,78.36
2019-05-17T10:46:30.216Z,78.83
2019-05-17T10:47:30.254Z,78.16
2019-05-17T10:48:30.230Z,78.36
2019-05-17T10:49:29.922Z,78.30
2019-05-17T10:50:30.026Z,77.34
2019-05-17T10:51:29.889Z,77.15
2019-05-17T10:52:30.125Z,76.96
2019-05-17T10:53:29.927Z,75.91
2019-05-17T10:54:30.196Z,75.62
2019-05-17T10:55:30.321Z,73.58
2019-05-17T10:56:29.803Z,72.68
2019-05-17T10:57:30.263Z,74.40
2019-05-17T10:58:29.815Z,74.15
2019-05-17T10:59:29.755Z,74.63
2019-05-17T11:00:30.286Z,72.53
2019-05-17T11:01:30.546Z,73.96
2019-05-17T11:02:30.366Z,72.14
2019-05-17T11:03:29.780Z,71.80
2019-05-17T11:04:29.669Z,72.08
2019-05-17T11:05:30.862Z,72.37
2019-05-17T11:06:30.236Z,72.41
2019-05-17T11:07:29.622Z,69.82
2019-05-17T11:08:29.612Z,69.15
2019-05-17T11:09:31.089Z,69.31
2019-05-17T11:10:29.576Z,71.70
2019-05-17T11:11:29.561Z,70.07
2019-05-17T11:12:29.545Z,71.16
2019-05-17T11:13:29.533Z,69.73
2019-05-17T11:14:29.564Z,68.87
2019-05-17T11:15:29.495Z,66.67
2019-05-17T11:16:29.481Z,66.22
2019-05-17T11:17:29.463Z,66.03
2019-05-17T11:18:29.444Z,66.61
2019-05-17T11:19:29.435Z,65.74
2019-05-17T11:20:29.419Z,65.84
2019-05-17T11:21:29.406Z,65.74
2019-05-17T11:22:29.418Z,65.42
2019-05-17T11:23:29.387Z,65.74
2019-05-17T11:24:29.360Z,65.68
2019-05-17T11:25:29.345Z,64.25
2019-05-17T11:26:29.335Z,63.86
2019-05-17T11:27:29.316Z,63.67
2019-05-17T11:28:29.301Z,65.20
2019-05-17T11:29:29.302Z,65.94
2019-05-17T11:30:29.271Z,66.13
2019-05-17T11:31:29.261Z,64.85
2019-05-17T11:32:29.274Z,65.77
2019-05-17T11:33:29.231Z,68.29
2019-05-17T11:34:29.215Z,67.63
2019-05-17T11:35:29.202Z,68.20
2019-05-17T11:36:29.190Z,67.47
2019-05-17T11:37:29.178Z,66.74
2019-05-17T11:38:29.163Z,65.62
2019-05-17T11:39:29.146Z,63.89
2019-05-17T11:40:29.141Z,63.76
2019-05-17T11:41:29.117Z,64.37
2019-05-17T11:42:29.104Z,65.30
2019-05-17T11:43:29.090Z,65.78
2019-05-17T11:44:29.077Z,66.03
2019-05-17T11:45:32.465Z,65.84
2019-05-17T11:46:36.242Z,67.05
2019-05-17T11:47:29.032Z,66.16
2019-05-17T11:48:29.020Z,67.82
2019-05-17T11:49:29.013Z,69.06
2019-05-17T11:50:29.008Z,68.77
2019-05-17T11:51:28.975Z,67.82
2019-05-17T11:52:28.967Z,67.76
2019-05-17T11:53:28.955Z,67.76
2019-05-17T11:54:28.949Z,66.89
2019-05-17T11:55:28.927Z,66.61
2019-05-17T11:56:28.906Z,66.32
2019-05-17T11:57:28.895Z,65.65
2019-05-17T11:58:28.880Z,64.76
2019-05-17T11:59:28.879Z,63.99
2019-05-17T12:00:28.855Z,65.52
2019-05-17T12:01:28.842Z,64.79
2019-05-17T12:02:28.825Z,63.86
2019-05-17T12:03:28.810Z,63.16
2019-05-17T12:04:28.797Z,62.96
2019-05-17T12:05:28.788Z,63.35
2019-05-17T12:06:28.766Z,63.13
2019-05-17T12:07:28.764Z,64.37
2019-05-17T12:08:28.744Z,63.89
2019-05-17T12:09:36.897Z,63.96
2019-05-17T12:10:28.753Z,63.76
2019-05-17T12:11:28.705Z,63.16
2019-05-17T12:12:28.693Z,64.22
2019-05-17T12:13:28.677Z,64.82
2019-05-17T12:14:28.665Z,64.43
2019-05-17T12:15:43.635Z,63.89
2019-05-17T12:16:28.635Z,63.89
2019-05-17T12:17:28.625Z,62.93
2019-05-17T12:18:28.606Z,63.03
2019-05-17T12:19:28.596Z,61.21
2019-05-17T12:20:28.578Z,61.88
2019-05-17T12:21:28.569Z,62.77
2019-05-17T12:22:28.557Z,62.30
2019-05-17T12:23:28.554Z,62.20
2019-05-17T12:24:28.533Z,61.72
2019-05-17T12:25:28.520Z,62.74
2019-05-17T12:26:28.504Z,62.65
2019-05-17T12:27:28.485Z,62.81
2019-05-17T12:28:28.481Z,62.81
2019-05-17T12:29:28.462Z,64.31
2019-05-17T12:30:28.491Z,63.45
2019-05-17T12:31:28.437Z,63.83
2019-05-17T12:32:28.437Z,64.31
2019-05-17T12:33:28.405Z,64.15
2019-05-17T12:34:28.391Z,63.10
2019-05-17T12:35:35.568Z,61.82
2019-05-17T12:37:24.315Z,60.38
2019-05-17T12:38:24.271Z,60.96
2019-05-17T12:40:18.711Z,60.19
2019-05-17T12:41:18.673Z,59.90
2019-05-17T12:43:18.827Z,60.38
2019-05-17T12:44:11.561Z,60.60
2019-05-17T12:46:05.212Z,60.05
2019-05-17T12:47:04.922Z,59.16
2019-05-17T12:48:57.833Z,59.42
2019-05-17T12:49:57.826Z,60.54
2019-05-17T12:51:50.746Z,61.98
2019-05-17T12:52:50.703Z,62.84
2019-05-17T12:54:43.650Z,61.05
2019-05-17T12:55:43.600Z,61.02
2019-05-17T12:56:43.582Z,62.46
2019-05-17T12:57:43.574Z,61.98
2019-05-17T12:58:43.562Z,62.74
2019-05-17T12:59:43.546Z,62.49
2019-05-17T13:00:43.545Z,59.36
2019-05-17T13:01:43.524Z,58.52
2019-05-17T13:02:43.502Z,58.26
2019-05-17T13:03:43.496Z,58.39